sensor_id;sensor_type;location;lat;lon;timestamp;pressure;altitude;pressure_sealevel;temperature;humidity
1652;BME280;823;49.028;8.454;2022-12-15T00:01:14;99327.63;;;2.50;58.22
1652;BME280;823;49.028;8.454;2022-12-15T00:06:32;99319.25;;;2.42;58.13
1652;BME280;823;49.028;8.454;2022-12-15T00:11:51;99324.41;;;2.38;57.96
1652;BME280;823;49.028;8.454;2022-12-15T00:17:10;99319.31;;;2.38;58.11
1652;BME280;823;49.028;8.454;2022-12-15T00:22:29;99331.97;;;2.43;58.42
1652;BME280;823;49.028;8.454;2022-12-15T00:27:47;99344.78;;;2.42;58.37
1652;BME280;823;49.028;8.454;2022-12-15T00:33:08;99361.75;;;2.44;58.39
1652;BME280;823;49.028;8.454;2022-12-15T00:38:27;99366.03;;;2.42;58.22
1652;BME280;823;49.028;8.454;2022-12-15T00:43:41;99377.03;;;2.46;58.20
1652;BME280;823;49.028;8.454;2022-12-15T00:48:43;99377.00;;;2.47;58.21
1652;BME280;823;49.028;8.454;2022-12-15T00:53:43;99379.53;;;2.49;58.32
1652;BME280;823;49.028;8.454;2022-12-15T00:59:02;99376.22;;;2.42;58.43
1652;BME280;823;49.028;8.454;2022-12-15T01:04:21;99369.44;;;2.43;58.41
1652;BME280;823;49.028;8.454;2022-12-15T01:09:40;99373.78;;;2.36;58.52
1652;BME280;823;49.028;8.454;2022-12-15T01:14:58;99385.59;;;2.43;58.40
1652;BME280;823;49.028;8.454;2022-12-15T01:20:17;99389.03;;;2.39;58.77
1652;BME280;823;49.028;8.454;2022-12-15T01:25:20;99406.13;;;2.34;58.87
1652;BME280;823;49.028;8.454;2022-12-15T01:30:23;99404.53;;;2.27;59.01
1652;BME280;823;49.028;8.454;2022-12-15T01:35:24;99400.28;;;2.26;58.68
1652;BME280;823;49.028;8.454;2022-12-15T01:40:26;99408.72;;;2.31;58.45
1652;BME280;823;49.028;8.454;2022-12-15T01:56:09;99413.78;;;2.34;58.69
1652;BME280;823;49.028;8.454;2022-12-15T02:01:11;99421.50;;;2.31;58.51
1652;BME280;823;49.028;8.454;2022-12-15T02:06:11;99410.31;;;2.38;58.27
1652;BME280;823;49.028;8.454;2022-12-15T02:11:41;99412.88;;;2.38;58.33
1652;BME280;823;49.028;8.454;2022-12-15T02:33:24;99417.25;;;2.31;58.55
1652;BME280;823;49.028;8.454;2022-12-15T02:38:28;99421.44;;;2.34;58.68
1652;BME280;823;49.028;8.454;2022-12-15T02:43:30;99429.25;;;2.25;58.95
1652;BME280;823;49.028;8.454;2022-12-15T02:49:15;99439.31;;;2.35;58.47
1652;BME280;823;49.028;8.454;2022-12-15T02:54:22;99432.59;;;2.28;58.83
1652;BME280;823;49.028;8.454;2022-12-15T03:04:38;99445.34;;;2.28;59.04
1652;BME280;823;49.028;8.454;2022-12-15T03:09:41;99444.72;;;2.12;59.07
1652;BME280;823;49.028;8.454;2022-12-15T03:14:41;99451.38;;;2.22;58.70
1652;BME280;823;49.028;8.454;2022-12-15T03:19:42;99447.22;;;2.15;58.83
1652;BME280;823;49.028;8.454;2022-12-15T03:24:42;99446.38;;;2.16;59.18
1652;BME280;823;49.028;8.454;2022-12-15T03:29:42;99463.28;;;2.24;58.83
1652;BME280;823;49.028;8.454;2022-12-15T03:34:42;99448.16;;;2.10;59.38
1652;BME280;823;49.028;8.454;2022-12-15T03:39:44;99455.25;;;1.87;60.24
1652;BME280;823;49.028;8.454;2022-12-15T03:44:44;99448.25;;;2.02;59.36
1652;BME280;823;49.028;8.454;2022-12-15T03:49:44;99453.47;;;1.94;59.76
1652;BME280;823;49.028;8.454;2022-12-15T03:54:45;99473.75;;;2.02;59.91
1652;BME280;823;49.028;8.454;2022-12-15T03:59:45;99486.47;;;2.07;59.65
1652;BME280;823;49.028;8.454;2022-12-15T04:04:45;99481.44;;;1.99;60.09
1652;BME280;823;49.028;8.454;2022-12-15T04:09:47;99472.91;;;2.03;59.79
1652;BME280;823;49.028;8.454;2022-12-15T04:14:47;99463.53;;;2.03;59.92
1652;BME280;823;49.028;8.454;2022-12-15T04:19:48;99471.97;;;2.09;60.09
1652;BME280;823;49.028;8.454;2022-12-15T04:25:09;99461.00;;;2.02;60.27
1652;BME280;823;49.028;8.454;2022-12-15T04:30:29;99466.22;;;1.94;60.59
1652;BME280;823;49.028;8.454;2022-12-15T04:35:49;99467.06;;;1.95;60.44
1652;BME280;823;49.028;8.454;2022-12-15T04:41:08;99491.63;;;2.00;60.58
1652;BME280;823;49.028;8.454;2022-12-15T04:46:27;99480.72;;;1.89;60.46
1652;BME280;823;49.028;8.454;2022-12-15T04:51:46;99479.84;;;1.92;60.69
1652;BME280;823;49.028;8.454;2022-12-15T04:57:05;99484.91;;;1.95;60.58
1652;BME280;823;49.028;8.454;2022-12-15T05:02:23;99475.56;;;1.95;60.69
1652;BME280;823;49.028;8.454;2022-12-15T05:07:42;99480.59;;;2.00;60.68
1652;BME280;823;49.028;8.454;2022-12-15T05:13:05;99487.22;;;2.12;60.43
1652;BME280;823;49.028;8.454;2022-12-15T05:18:24;99498.34;;;2.06;60.49
1652;BME280;823;49.028;8.454;2022-12-15T05:23:43;99504.25;;;2.11;60.60
1652;BME280;823;49.028;8.454;2022-12-15T05:29:02;99500.81;;;2.14;60.31
1652;BME280;823;49.028;8.454;2022-12-15T05:34:23;99506.00;;;2.09;60.51
1652;BME280;823;49.028;8.454;2022-12-15T05:39:25;99491.53;;;2.08;60.85
1652;BME280;823;49.028;8.454;2022-12-15T05:44:27;99498.22;;;2.17;60.30
1652;BME280;823;49.028;8.454;2022-12-15T05:49:27;99501.75;;;2.08;60.75
1652;BME280;823;49.028;8.454;2022-12-15T05:54:28;99504.16;;;2.20;60.52
1652;BME280;823;49.028;8.454;2022-12-15T05:59:28;99487.88;;;2.28;60.46
1652;BME280;823;49.028;8.454;2022-12-15T06:04:28;99482.78;;;2.28;60.42
1652;BME280;823;49.028;8.454;2022-12-15T06:09:29;99509.94;;;2.32;60.23
1652;BME280;823;49.028;8.454;2022-12-15T06:14:29;99514.28;;;2.25;60.60
1652;BME280;823;49.028;8.454;2022-12-15T06:19:30;99520.34;;;2.18;60.33
1652;BME280;823;49.028;8.454;2022-12-15T06:24:30;99504.19;;;2.16;60.94
1652;BME280;823;49.028;8.454;2022-12-15T06:29:30;99511.88;;;2.14;60.40
1652;BME280;823;49.028;8.454;2022-12-15T06:34:32;99518.78;;;2.04;61.24
1652;BME280;823;49.028;8.454;2022-12-15T06:39:32;99543.28;;;2.19;60.64
1652;BME280;823;49.028;8.454;2022-12-15T06:44:32;99555.16;;;2.22;60.42
1652;BME280;823;49.028;8.454;2022-12-15T06:49:34;99554.44;;;2.11;61.27
1652;BME280;823;49.028;8.454;2022-12-15T06:54:34;99552.03;;;1.98;61.50
1652;BME280;823;49.028;8.454;2022-12-15T06:59:34;99552.16;;;1.87;61.51
1652;BME280;823;49.028;8.454;2022-12-15T07:04:35;99537.59;;;1.96;61.35
1652;BME280;823;49.028;8.454;2022-12-15T07:09:35;99541.84;;;1.94;61.22
1652;BME280;823;49.028;8.454;2022-12-15T07:14:35;99521.53;;;1.89;61.28
1652;BME280;823;49.028;8.454;2022-12-15T07:19:36;99526.69;;;1.84;61.20
1652;BME280;823;49.028;8.454;2022-12-15T07:24:36;99516.31;;;2.00;61.01
1652;BME280;823;49.028;8.454;2022-12-15T07:29:37;99524.72;;;2.08;60.84
1652;BME280;823;49.028;8.454;2022-12-15T07:34:37;99517.88;;;2.09;60.90
1652;BME280;823;49.028;8.454;2022-12-15T07:39:37;99522.31;;;1.96;61.02
1652;BME280;823;49.028;8.454;2022-12-15T07:44:37;99515.66;;;1.82;60.99
1652;BME280;823;49.028;8.454;2022-12-15T07:49:38;99543.38;;;2.10;60.21
1652;BME280;823;49.028;8.454;2022-12-15T07:54:39;99549.28;;;2.14;60.10
1652;BME280;823;49.028;8.454;2022-12-15T07:59:39;99574.81;;;2.14;59.93
1652;BME280;823;49.028;8.454;2022-12-15T08:04:40;99569.78;;;2.06;60.03
1652;BME280;823;49.028;8.454;2022-12-15T08:09:40;99580.59;;;2.27;59.34
1652;BME280;823;49.028;8.454;2022-12-15T08:14:41;99594.25;;;2.22;59.71
1652;BME280;823;49.028;8.454;2022-12-15T08:19:41;99588.44;;;2.11;59.41
1652;BME280;823;49.028;8.454;2022-12-15T08:24:42;99594.63;;;1.90;60.16
1652;BME280;823;49.028;8.454;2022-12-15T08:29:44;99596.19;;;2.00;59.56
1652;BME280;823;49.028;8.454;2022-12-15T08:34:47;99605.63;;;1.94;59.92
1652;BME280;823;49.028;8.454;2022-12-15T08:39:48;99616.72;;;1.90;59.47
1652;BME280;823;49.028;8.454;2022-12-15T08:44:49;99636.97;;;2.03;59.24
1652;BME280;823;49.028;8.454;2022-12-15T08:49:50;99629.47;;;1.90;59.14
1652;BME280;823;49.028;8.454;2022-12-15T08:54:52;99616.84;;;1.79;59.81
1652;BME280;823;49.028;8.454;2022-12-15T08:59:52;99616.06;;;1.67;59.99
1652;BME280;823;49.028;8.454;2022-12-15T09:04:53;99601.59;;;1.71;59.88
1652;BME280;823;49.028;8.454;2022-12-15T09:09:53;99587.06;;;1.79;59.48
1652;BME280;823;49.028;8.454;2022-12-15T09:14:54;99596.72;;;1.46;60.77
1652;BME280;823;49.028;8.454;2022-12-15T09:19:54;99591.34;;;1.76;59.86
1652;BME280;823;49.028;8.454;2022-12-15T09:24:54;99603.16;;;1.87;59.63
1652;BME280;823;49.028;8.454;2022-12-15T09:29:56;99626.03;;;1.95;59.00
1652;BME280;823;49.028;8.454;2022-12-15T09:34:57;99631.19;;;1.87;59.81
1652;BME280;823;49.028;8.454;2022-12-15T09:39:58;99637.16;;;1.85;59.26
1652;BME280;823;49.028;8.454;2022-12-15T09:45:08;99623.28;;;2.12;58.95
1652;BME280;823;49.028;8.454;2022-12-15T09:50:14;99617.44;;;2.04;58.69
1652;BME280;823;49.028;8.454;2022-12-15T09:55:21;99623.22;;;2.18;57.97
1652;BME280;823;49.028;8.454;2022-12-15T10:00:35;99627.25;;;2.36;58.03
1652;BME280;823;49.028;8.454;2022-12-15T10:06:16;99608.00;;;2.11;58.57
1652;BME280;823;49.028;8.454;2022-12-15T10:11:23;99601.22;;;2.10;58.76
1652;BME280;823;49.028;8.454;2022-12-15T10:16:35;99605.25;;;2.28;57.87
1652;BME280;823;49.028;8.454;2022-12-15T10:21:37;99608.41;;;2.48;57.73
1652;BME280;823;49.028;8.454;2022-12-15T10:26:40;99628.75;;;2.54;57.84
1652;BME280;823;49.028;8.454;2022-12-15T10:31:52;99627.03;;;2.57;57.57
1652;BME280;823;49.028;8.454;2022-12-15T10:36:55;99626.03;;;2.67;57.25
1652;BME280;823;49.028;8.454;2022-12-15T10:47:25;99591.56;;;2.97;56.69
1652;BME280;823;49.028;8.454;2022-12-15T10:52:34;99569.56;;;2.88;56.30
1652;BME280;823;49.028;8.454;2022-12-15T10:57:34;99564.88;;;3.17;55.55
1652;BME280;823;49.028;8.454;2022-12-15T11:02:35;99560.09;;;2.97;55.24
1652;BME280;823;49.028;8.454;2022-12-15T11:07:45;99547.41;;;2.90;55.37
1652;BME280;823;49.028;8.454;2022-12-15T11:12:59;99547.00;;;3.15;54.96
1652;BME280;823;49.028;8.454;2022-12-15T11:18:10;99543.19;;;2.88;55.12
1652;BME280;823;49.028;8.454;2022-12-15T11:28:58;99551.50;;;3.02;54.78
1652;BME280;823;49.028;8.454;2022-12-15T11:34:00;99556.59;;;3.02;54.23
1652;BME280;823;49.028;8.454;2022-12-15T11:39:09;99542.56;;;3.27;53.77
1652;BME280;823;49.028;8.454;2022-12-15T11:44:21;99537.50;;;3.23;53.59
1652;BME280;823;49.028;8.454;2022-12-15T11:49:40;99511.91;;;3.28;53.52
1652;BME280;823;49.028;8.454;2022-12-15T11:54:54;99482.31;;;3.15;53.85
1652;BME280;823;49.028;8.454;2022-12-15T12:00:17;99474.56;;;3.19;54.04
1652;BME280;823;49.028;8.454;2022-12-15T12:05:46;99467.03;;;3.10;54.01
1652;BME280;823;49.028;8.454;2022-12-15T12:11:14;99469.44;;;3.19;53.72
1652;BME280;823;49.028;8.454;2022-12-15T12:21:44;99446.38;;;3.22;52.98
1652;BME280;823;49.028;8.454;2022-12-15T12:26:57;99446.28;;;3.29;53.81
1652;BME280;823;49.028;8.454;2022-12-15T12:32:15;99441.88;;;3.37;54.03
1652;BME280;823;49.028;8.454;2022-12-15T12:37:40;99450.03;;;3.54;53.80
1652;BME280;823;49.028;8.454;2022-12-15T12:42:52;99445.44;;;3.27;53.71
1652;BME280;823;49.028;8.454;2022-12-15T12:47:56;99443.06;;;3.63;53.25
1652;BME280;823;49.028;8.454;2022-12-15T12:53:01;99426.81;;;3.65;52.82
1652;BME280;823;49.028;8.454;2022-12-15T12:58:02;99425.13;;;3.66;52.83
1652;BME280;823;49.028;8.454;2022-12-15T13:03:18;99408.00;;;3.69;52.61
1652;BME280;823;49.028;8.454;2022-12-15T13:08:49;99394.16;;;3.80;52.58
1652;BME280;823;49.028;8.454;2022-12-15T13:13:49;99389.09;;;3.77;52.66
1652;BME280;823;49.028;8.454;2022-12-15T13:19:02;99408.88;;;3.24;53.00
1652;BME280;823;49.028;8.454;2022-12-15T13:24:03;99386.81;;;3.63;52.71
1652;BME280;823;49.028;8.454;2022-12-15T13:29:08;99385.47;;;3.46;52.52
1652;BME280;823;49.028;8.454;2022-12-15T13:34:14;99378.16;;;3.70;52.38
1652;BME280;823;49.028;8.454;2022-12-15T13:49:37;99371.53;;;4.00;52.93
1652;BME280;823;49.028;8.454;2022-12-15T13:54:46;99370.91;;;3.90;52.75
1652;BME280;823;49.028;8.454;2022-12-15T13:59:54;99371.50;;;3.61;53.22
1652;BME280;823;49.028;8.454;2022-12-15T14:05:04;99356.06;;;3.67;53.63
1652;BME280;823;49.028;8.454;2022-12-15T14:10:56;99363.00;;;3.61;53.99
1652;BME280;823;49.028;8.454;2022-12-15T14:15:41;99368.81;;;3.69;53.61
1652;BME280;823;49.028;8.454;2022-12-15T14:20:43;99366.44;;;3.60;53.72
1652;BME280;823;49.028;8.454;2022-12-15T14:25:55;99371.16;;;3.36;54.21
1652;BME280;823;49.028;8.454;2022-12-15T14:30:57;99382.91;;;3.46;53.87
1652;BME280;823;49.028;8.454;2022-12-15T14:35:59;99374.91;;;3.19;54.39
1652;BME280;823;49.028;8.454;2022-12-15T14:41:02;99369.81;;;3.18;54.64
1652;BME280;823;49.028;8.454;2022-12-15T14:46:06;99392.94;;;3.12;54.18
1652;BME280;823;49.028;8.454;2022-12-15T14:51:09;99390.03;;;2.83;54.86
1652;BME280;823;49.028;8.454;2022-12-15T14:56:12;99398.72;;;2.73;54.94
1652;BME280;823;49.028;8.454;2022-12-15T15:01:36;99392.97;;;2.60;54.86
1652;BME280;823;49.028;8.454;2022-12-15T15:06:39;99399.19;;;2.45;55.34
1652;BME280;823;49.028;8.454;2022-12-15T15:11:40;99393.47;;;2.28;55.65
1652;BME280;823;49.028;8.454;2022-12-15T15:16:42;99394.66;;;2.05;56.25
1652;BME280;823;49.028;8.454;2022-12-15T15:21:44;99399.84;;;1.99;56.49
1652;BME280;823;49.028;8.454;2022-12-15T15:26:45;99389.81;;;1.86;56.75
1652;BME280;823;49.028;8.454;2022-12-15T15:31:45;99391.66;;;1.75;56.91
1652;BME280;823;49.028;8.454;2022-12-15T15:36:45;99386.72;;;1.63;57.24
1652;BME280;823;49.028;8.454;2022-12-15T15:41:46;99378.56;;;1.36;57.90
1652;BME280;823;49.028;8.454;2022-12-15T15:46:49;99382.72;;;1.42;57.75
1652;BME280;823;49.028;8.454;2022-12-15T15:51:50;99386.13;;;1.42;57.74
1652;BME280;823;49.028;8.454;2022-12-15T15:56:50;99385.41;;;1.31;58.03
1652;BME280;823;49.028;8.454;2022-12-15T16:01:53;99393.91;;;1.30;57.84
1652;BME280;823;49.028;8.454;2022-12-15T16:06:54;99393.97;;;1.24;58.14
1652;BME280;823;49.028;8.454;2022-12-15T16:11:56;99393.16;;;1.20;58.29
1652;BME280;823;49.028;8.454;2022-12-15T16:16:57;99392.38;;;1.13;58.69
1652;BME280;823;49.028;8.454;2022-12-15T16:21:58;99397.69;;;0.89;59.48
1652;BME280;823;49.028;8.454;2022-12-15T16:26:59;99388.16;;;1.12;58.73
1652;BME280;823;49.028;8.454;2022-12-15T16:31:59;99391.53;;;1.13;58.90
1652;BME280;823;49.028;8.454;2022-12-15T16:37:00;99394.16;;;1.04;58.89
1652;BME280;823;49.028;8.454;2022-12-15T16:42:01;99383.16;;;1.03;59.05
1652;BME280;823;49.028;8.454;2022-12-15T16:47:01;99382.19;;;1.13;58.78
1652;BME280;823;49.028;8.454;2022-12-15T16:52:01;99396.63;;;1.13;58.86
1652;BME280;823;49.028;8.454;2022-12-15T16:57:02;99393.09;;;1.26;58.63
1652;BME280;823;49.028;8.454;2022-12-15T17:02:25;99404.00;;;1.38;58.60
1652;BME280;823;49.028;8.454;2022-12-15T17:07:26;99393.84;;;1.33;58.35
1652;BME280;823;49.028;8.454;2022-12-15T17:12:27;99406.59;;;1.31;58.65
1652;BME280;823;49.028;8.454;2022-12-15T17:17:28;99382.94;;;1.23;58.52
1652;BME280;823;49.028;8.454;2022-12-15T17:22:30;99376.03;;;1.34;58.49
1652;BME280;823;49.028;8.454;2022-12-15T17:27:32;99377.56;;;1.46;58.19
1652;BME280;823;49.028;8.454;2022-12-15T17:32:32;99370.13;;;1.31;58.46
1652;BME280;823;49.028;8.454;2022-12-15T17:37:32;99366.00;;;1.21;58.52
1652;BME280;823;49.028;8.454;2022-12-15T17:42:33;99362.44;;;1.32;58.42
1652;BME280;823;49.028;8.454;2022-12-15T17:47:33;99359.81;;;1.40;58.28
1652;BME280;823;49.028;8.454;2022-12-15T17:52:37;99353.22;;;1.24;58.54
1652;BME280;823;49.028;8.454;2022-12-15T17:57:38;99353.03;;;1.39;58.08
1652;BME280;823;49.028;8.454;2022-12-15T18:02:39;99346.34;;;1.32;58.49
1652;BME280;823;49.028;8.454;2022-12-15T18:07:39;99349.84;;;1.22;58.03
1652;BME280;823;49.028;8.454;2022-12-15T18:12:39;99344.41;;;1.51;57.95
1652;BME280;823;49.028;8.454;2022-12-15T18:17:40;99352.88;;;1.51;57.69
1652;BME280;823;49.028;8.454;2022-12-15T18:22:40;99342.00;;;1.40;57.98
1652;BME280;823;49.028;8.454;2022-12-15T18:27:41;99348.56;;;1.55;58.21
1652;BME280;823;49.028;8.454;2022-12-15T18:32:42;99344.22;;;1.65;57.80
1652;BME280;823;49.028;8.454;2022-12-15T18:37:42;99331.00;;;1.35;58.34
1652;BME280;823;49.028;8.454;2022-12-15T18:42:45;99323.91;;;1.59;57.96
1652;BME280;823;49.028;8.454;2022-12-15T18:47:46;99318.94;;;1.48;57.99
1652;BME280;823;49.028;8.454;2022-12-15T18:52:49;99311.00;;;1.69;57.29
1652;BME280;823;49.028;8.454;2022-12-15T18:57:50;99320.19;;;1.83;57.04
1652;BME280;823;49.028;8.454;2022-12-15T19:02:53;99326.09;;;1.85;57.13
1652;BME280;823;49.028;8.454;2022-12-15T19:07:59;99322.63;;;1.89;56.94
1652;BME280;823;49.028;8.454;2022-12-15T19:12:59;99330.22;;;1.92;57.05
1652;BME280;823;49.028;8.454;2022-12-15T19:18:00;99325.06;;;1.97;56.85
1652;BME280;823;49.028;8.454;2022-12-15T19:23:18;99321.81;;;1.85;57.26
1652;BME280;823;49.028;8.454;2022-12-15T19:28:22;99321.69;;;1.95;56.53
1652;BME280;823;49.028;8.454;2022-12-15T19:33:23;99312.28;;;2.00;57.04
1652;BME280;823;49.028;8.454;2022-12-15T19:38:25;99325.09;;;1.94;57.30
1652;BME280;823;49.028;8.454;2022-12-15T19:43:26;99319.06;;;1.99;57.09
1652;BME280;823;49.028;8.454;2022-12-15T19:48:27;99318.09;;;2.08;56.50
1652;BME280;823;49.028;8.454;2022-12-15T19:53:28;99317.25;;;2.06;57.09
1652;BME280;823;49.028;8.454;2022-12-15T19:58:33;99323.16;;;2.11;56.60
1652;BME280;823;49.028;8.454;2022-12-15T20:03:35;99322.63;;;1.89;56.97
1652;BME280;823;49.028;8.454;2022-12-15T20:08:37;99320.88;;;1.93;56.64
1652;BME280;823;49.028;8.454;2022-12-15T20:13:40;99315.81;;;1.90;56.86
1652;BME280;823;49.028;8.454;2022-12-15T20:18:40;99322.63;;;1.89;56.66
1652;BME280;823;49.028;8.454;2022-12-15T20:23:55;99316.88;;;1.76;56.93
1652;BME280;823;49.028;8.454;2022-12-15T20:28:56;99317.06;;;1.62;57.69
1652;BME280;823;49.028;8.454;2022-12-15T20:33:57;99312.53;;;1.81;57.31
1652;BME280;823;49.028;8.454;2022-12-15T20:38:57;99309.91;;;1.87;56.88
1652;BME280;823;49.028;8.454;2022-12-15T20:43:58;99322.66;;;1.87;57.26
1652;BME280;823;49.028;8.454;2022-12-15T20:48:58;99335.38;;;1.89;57.02
1652;BME280;823;49.028;8.454;2022-12-15T20:54:00;99332.16;;;1.76;57.21
1652;BME280;823;49.028;8.454;2022-12-15T20:59:01;99341.56;;;1.73;57.19
1652;BME280;823;49.028;8.454;2022-12-15T21:04:13;99341.66;;;1.63;57.90
1652;BME280;823;49.028;8.454;2022-12-15T21:09:17;99346.03;;;1.53;58.04
1652;BME280;823;49.028;8.454;2022-12-15T21:14:21;99339.19;;;1.59;57.40
1652;BME280;823;49.028;8.454;2022-12-15T21:19:22;99332.53;;;1.48;58.40
1652;BME280;823;49.028;8.454;2022-12-15T21:24:26;99335.13;;;1.44;58.79
1652;BME280;823;49.028;8.454;2022-12-15T21:29:27;99343.41;;;1.61;58.51
1652;BME280;823;49.028;8.454;2022-12-15T21:34:28;99336.53;;;1.68;58.06
1652;BME280;823;49.028;8.454;2022-12-15T21:39:33;99331.31;;;1.76;58.31
1652;BME280;823;49.028;8.454;2022-12-15T21:44:33;99338.81;;;1.86;57.88
1652;BME280;823;49.028;8.454;2022-12-15T21:49:34;99338.78;;;1.88;57.75
1652;BME280;823;49.028;8.454;2022-12-15T21:54:35;99342.94;;;1.97;57.35
1652;BME280;823;49.028;8.454;2022-12-15T21:59:35;99343.09;;;1.84;57.38
1652;BME280;823;49.028;8.454;2022-12-15T22:04:35;99349.78;;;1.93;57.13
1652;BME280;823;49.028;8.454;2022-12-15T22:09:36;99356.88;;;1.71;57.49
1652;BME280;823;49.028;8.454;2022-12-15T22:14:36;99371.09;;;1.87;57.32
1652;BME280;823;49.028;8.454;2022-12-15T22:19:36;99373.00;;;1.73;57.25
1652;BME280;823;49.028;8.454;2022-12-15T22:24:37;99375.53;;;1.75;57.06
1652;BME280;823;49.028;8.454;2022-12-15T22:29:40;99378.16;;;1.67;57.15
1652;BME280;823;49.028;8.454;2022-12-15T22:34:40;99371.38;;;1.66;57.15
1652;BME280;823;49.028;8.454;2022-12-15T22:39:41;99366.41;;;1.58;57.23
1652;BME280;823;49.028;8.454;2022-12-15T22:44:41;99359.69;;;1.52;57.56
1652;BME280;823;49.028;8.454;2022-12-15T22:49:41;99357.97;;;1.51;57.53
1652;BME280;823;49.028;8.454;2022-12-15T22:54:42;99355.50;;;1.45;57.46
1652;BME280;823;49.028;8.454;2022-12-15T22:59:47;99350.34;;;1.50;57.46
1652;BME280;823;49.028;8.454;2022-12-15T23:04:48;99363.31;;;1.30;57.93
1652;BME280;823;49.028;8.454;2022-12-15T23:09:48;99361.81;;;1.16;58.29
1652;BME280;823;49.028;8.454;2022-12-15T23:15:09;99358.94;;;1.41;58.02
1652;BME280;823;49.028;8.454;2022-12-15T23:20:28;99353.25;;;1.21;58.70
1652;BME280;823;49.028;8.454;2022-12-15T23:25:28;99348.16;;;1.19;58.66
1652;BME280;823;49.028;8.454;2022-12-15T23:30:29;99349.00;;;1.21;58.58
1652;BME280;823;49.028;8.454;2022-12-15T23:35:29;99350.06;;;1.03;59.17
1652;BME280;823;49.028;8.454;2022-12-15T23:40:29;99349.09;;;1.12;59.15
1652;BME280;823;49.028;8.454;2022-12-15T23:45:30;99351.88;;;0.92;59.57
1652;BME280;823;49.028;8.454;2022-12-15T23:50:30;99355.13;;;1.05;59.88
1652;BME280;823;49.028;8.454;2022-12-15T23:55:33;99353.25;;;1.22;59.49
